sensor_id;sensor_type;location;lat;lon;timestamp;P1;durP1;ratioP1;P2;durP2;ratioP2
81908;SDS011;71372;43.514;1.512;2024-02-21T00:02:20;19.90;;;12.15;;
81908;SDS011;71372;43.514;1.512;2024-02-21T00:04:46;17.52;;;12.20;;
81908;SDS011;71372;43.514;1.512;2024-02-21T00:07:12;21.63;;;11.88;;
81908;SDS011;71372;43.514;1.512;2024-02-21T00:09:38;23.75;;;12.55;;
81908;SDS011;71372;43.514;1.512;2024-02-21T00:12:04;24.85;;;13.35;;
81908;SDS011;71372;43.514;1.512;2024-02-21T00:14:30;22.00;;;13.68;;
81908;SDS011;71372;43.514;1.512;2024-02-21T00:16:56;24.85;;;12.85;;
81908;SDS011;71372;43.514;1.512;2024-02-21T00:19:22;22.50;;;11.77;;
81908;SDS011;71372;43.514;1.512;2024-02-21T00:21:48;21.92;;;12.80;;
81908;SDS011;71372;43.514;1.512;2024-02-21T00:24:14;20.88;;;12.63;;
81908;SDS011;71372;43.514;1.512;2024-02-21T00:26:40;19.08;;;10.95;;
81908;SDS011;71372;43.514;1.512;2024-02-21T00:29:06;17.90;;;10.65;;
81908;SDS011;71372;43.514;1.512;2024-02-21T00:31:32;18.90;;;8.95;;
81908;SDS011;71372;43.514;1.512;2024-02-21T00:33:58;18.98;;;9.65;;
81908;SDS011;71372;43.514;1.512;2024-02-21T00:36:24;19.48;;;10.13;;
81908;SDS011;71372;43.514;1.512;2024-02-21T00:38:50;16.25;;;10.13;;
81908;SDS011;71372;43.514;1.512;2024-02-21T00:41:16;21.90;;;12.82;;
81908;SDS011;71372;43.514;1.512;2024-02-21T00:43:42;23.67;;;12.82;;
81908;SDS011;71372;43.514;1.512;2024-02-21T00:46:08;21.92;;;12.10;;
81908;SDS011;71372;43.514;1.512;2024-02-21T00:48:34;21.88;;;12.52;;
81908;SDS011;71372;43.514;1.512;2024-02-21T00:51:00;19.73;;;11.65;;
81908;SDS011;71372;43.514;1.512;2024-02-21T00:53:26;16.55;;;10.70;;
81908;SDS011;71372;43.514;1.512;2024-02-21T00:55:51;17.73;;;10.10;;
81908;SDS011;71372;43.514;1.512;2024-02-21T00:58:17;22.00;;;11.45;;
81908;SDS011;71372;43.514;1.512;2024-02-21T01:00:43;18.27;;;10.63;;
81908;SDS011;71372;43.514;1.512;2024-02-21T01:03:09;18.08;;;11.60;;
81908;SDS011;71372;43.514;1.512;2024-02-21T01:05:35;18.13;;;11.18;;
81908;SDS011;71372;43.514;1.512;2024-02-21T01:08:01;17.02;;;11.65;;
81908;SDS011;71372;43.514;1.512;2024-02-21T01:10:27;20.88;;;11.98;;
81908;SDS011;71372;43.514;1.512;2024-02-21T01:12:53;19.83;;;11.63;;
81908;SDS011;71372;43.514;1.512;2024-02-21T01:15:19;21.42;;;11.73;;
81908;SDS011;71372;43.514;1.512;2024-02-21T01:17:45;20.35;;;11.23;;
81908;SDS011;71372;43.514;1.512;2024-02-21T01:20:11;20.50;;;11.90;;
81908;SDS011;71372;43.514;1.512;2024-02-21T01:22:37;20.40;;;12.55;;
81908;SDS011;71372;43.514;1.512;2024-02-21T01:25:03;21.65;;;11.93;;
81908;SDS011;71372;43.514;1.512;2024-02-21T01:27:29;20.00;;;12.10;;
81908;SDS011;71372;43.514;1.512;2024-02-21T01:29:55;25.42;;;12.55;;
81908;SDS011;71372;43.514;1.512;2024-02-21T01:32:21;21.95;;;12.23;;
81908;SDS011;71372;43.514;1.512;2024-02-21T01:34:50;20.85;;;12.68;;
81908;SDS011;71372;43.514;1.512;2024-02-21T01:37:16;22.83;;;12.75;;
81908;SDS011;71372;43.514;1.512;2024-02-21T01:39:42;22.65;;;12.27;;
81908;SDS011;71372;43.514;1.512;2024-02-21T01:42:08;21.33;;;12.75;;
81908;SDS011;71372;43.514;1.512;2024-02-21T01:44:34;20.08;;;11.45;;
81908;SDS011;71372;43.514;1.512;2024-02-21T01:47:02;24.08;;;11.75;;
81908;SDS011;71372;43.514;1.512;2024-02-21T01:49:28;19.17;;;12.07;;
81908;SDS011;71372;43.514;1.512;2024-02-21T01:51:54;18.63;;;11.65;;
81908;SDS011;71372;43.514;1.512;2024-02-21T01:54:20;21.63;;;11.52;;
81908;SDS011;71372;43.514;1.512;2024-02-21T01:56:46;20.13;;;10.50;;
81908;SDS011;71372;43.514;1.512;2024-02-21T01:59:13;18.35;;;10.13;;
81908;SDS011;71372;43.514;1.512;2024-02-21T02:01:42;21.85;;;11.70;;
81908;SDS011;71372;43.514;1.512;2024-02-21T02:04:08;18.55;;;10.57;;
81908;SDS011;71372;43.514;1.512;2024-02-21T02:06:35;18.52;;;10.40;;
81908;SDS011;71372;43.514;1.512;2024-02-21T02:09:00;18.05;;;11.02;;
81908;SDS011;71372;43.514;1.512;2024-02-21T02:11:26;21.77;;;10.82;;
81908;SDS011;71372;43.514;1.512;2024-02-21T02:13:52;21.83;;;10.75;;
81908;SDS011;71372;43.514;1.512;2024-02-21T02:16:18;16.45;;;10.55;;
81908;SDS011;71372;43.514;1.512;2024-02-21T02:18:44;15.93;;;9.25;;
81908;SDS011;71372;43.514;1.512;2024-02-21T02:21:12;17.85;;;9.30;;
81908;SDS011;71372;43.514;1.512;2024-02-21T02:23:47;17.63;;;9.27;;
81908;SDS011;71372;43.514;1.512;2024-02-21T02:26:13;19.00;;;9.20;;
81908;SDS011;71372;43.514;1.512;2024-02-21T02:28:39;17.30;;;9.10;;
81908;SDS011;71372;43.514;1.512;2024-02-21T02:31:05;16.27;;;9.85;;
81908;SDS011;71372;43.514;1.512;2024-02-21T02:33:31;15.93;;;9.88;;
81908;SDS011;71372;43.514;1.512;2024-02-21T02:35:57;16.67;;;8.80;;
81908;SDS011;71372;43.514;1.512;2024-02-21T02:38:24;14.70;;;8.85;;
81908;SDS011;71372;43.514;1.512;2024-02-21T02:40:50;15.57;;;8.60;;
81908;SDS011;71372;43.514;1.512;2024-02-21T02:43:16;14.45;;;8.50;;
81908;SDS011;71372;43.514;1.512;2024-02-21T02:45:42;16.38;;;8.35;;
81908;SDS011;71372;43.514;1.512;2024-02-21T02:48:08;14.43;;;8.88;;
81908;SDS011;71372;43.514;1.512;2024-02-21T02:50:34;13.30;;;7.65;;
81908;SDS011;71372;43.514;1.512;2024-02-21T02:53:00;12.55;;;8.30;;
81908;SDS011;71372;43.514;1.512;2024-02-21T02:55:26;16.02;;;7.88;;
81908;SDS011;71372;43.514;1.512;2024-02-21T02:57:52;14.43;;;8.45;;
81908;SDS011;71372;43.514;1.512;2024-02-21T03:00:18;14.30;;;8.13;;
81908;SDS011;71372;43.514;1.512;2024-02-21T03:02:45;13.75;;;8.07;;
81908;SDS011;71372;43.514;1.512;2024-02-21T03:05:15;18.50;;;8.10;;
81908;SDS011;71372;43.514;1.512;2024-02-21T03:07:42;19.75;;;8.00;;
81908;SDS011;71372;43.514;1.512;2024-02-21T03:10:08;16.38;;;7.10;;
81908;SDS011;71372;43.514;1.512;2024-02-21T03:12:34;17.15;;;8.27;;
81908;SDS011;71372;43.514;1.512;2024-02-21T03:15:01;13.48;;;8.45;;
81908;SDS011;71372;43.514;1.512;2024-02-21T03:17:27;13.90;;;8.13;;
81908;SDS011;71372;43.514;1.512;2024-02-21T03:19:53;14.77;;;8.13;;
81908;SDS011;71372;43.514;1.512;2024-02-21T03:22:21;14.13;;;8.05;;
81908;SDS011;71372;43.514;1.512;2024-02-21T03:24:48;22.90;;;9.07;;
81908;SDS011;71372;43.514;1.512;2024-02-21T03:27:13;13.82;;;8.55;;
81908;SDS011;71372;43.514;1.512;2024-02-21T03:29:39;14.93;;;8.48;;
81908;SDS011;71372;43.514;1.512;2024-02-21T03:32:05;12.13;;;7.57;;
81908;SDS011;71372;43.514;1.512;2024-02-21T03:34:31;15.15;;;9.18;;
81908;SDS011;71372;43.514;1.512;2024-02-21T03:36:57;17.63;;;8.52;;
81908;SDS011;71372;43.514;1.512;2024-02-21T03:39:24;14.80;;;8.70;;
81908;SDS011;71372;43.514;1.512;2024-02-21T03:41:50;15.48;;;8.82;;
81908;SDS011;71372;43.514;1.512;2024-02-21T03:44:17;16.52;;;8.75;;
81908;SDS011;71372;43.514;1.512;2024-02-21T03:46:43;14.32;;;8.45;;
81908;SDS011;71372;43.514;1.512;2024-02-21T03:49:08;15.10;;;8.68;;
81908;SDS011;71372;43.514;1.512;2024-02-21T03:51:34;14.32;;;8.40;;
81908;SDS011;71372;43.514;1.512;2024-02-21T03:54:01;14.00;;;8.52;;
81908;SDS011;71372;43.514;1.512;2024-02-21T03:56:27;15.70;;;8.38;;
81908;SDS011;71372;43.514;1.512;2024-02-21T03:58:53;12.50;;;7.82;;
81908;SDS011;71372;43.514;1.512;2024-02-21T04:01:19;14.15;;;8.30;;
81908;SDS011;71372;43.514;1.512;2024-02-21T04:03:45;17.83;;;9.18;;
81908;SDS011;71372;43.514;1.512;2024-02-21T04:06:10;15.88;;;8.88;;
81908;SDS011;71372;43.514;1.512;2024-02-21T04:08:36;15.70;;;8.88;;
81908;SDS011;71372;43.514;1.512;2024-02-21T04:11:02;14.38;;;8.93;;
81908;SDS011;71372;43.514;1.512;2024-02-21T04:13:28;14.60;;;8.27;;
81908;SDS011;71372;43.514;1.512;2024-02-21T04:15:54;12.98;;;7.47;;
81908;SDS011;71372;43.514;1.512;2024-02-21T04:18:20;13.90;;;8.40;;
81908;SDS011;71372;43.514;1.512;2024-02-21T04:20:47;13.38;;;8.15;;
81908;SDS011;71372;43.514;1.512;2024-02-21T04:23:13;14.80;;;7.75;;
81908;SDS011;71372;43.514;1.512;2024-02-21T04:25:39;13.45;;;8.05;;
81908;SDS011;71372;43.514;1.512;2024-02-21T04:28:05;11.60;;;7.60;;
81908;SDS011;71372;43.514;1.512;2024-02-21T04:30:31;16.02;;;8.05;;
81908;SDS011;71372;43.514;1.512;2024-02-21T04:32:57;15.68;;;8.60;;
81908;SDS011;71372;43.514;1.512;2024-02-21T04:35:23;13.63;;;7.80;;
81908;SDS011;71372;43.514;1.512;2024-02-21T04:37:49;12.90;;;8.07;;
81908;SDS011;71372;43.514;1.512;2024-02-21T04:40:15;13.95;;;8.07;;
81908;SDS011;71372;43.514;1.512;2024-02-21T04:42:42;16.00;;;8.85;;
81908;SDS011;71372;43.514;1.512;2024-02-21T04:45:08;15.40;;;9.02;;
81908;SDS011;71372;43.514;1.512;2024-02-21T04:47:35;18.25;;;10.27;;
81908;SDS011;71372;43.514;1.512;2024-02-21T04:50:01;19.23;;;10.32;;
81908;SDS011;71372;43.514;1.512;2024-02-21T04:52:27;16.17;;;9.63;;
81908;SDS011;71372;43.514;1.512;2024-02-21T04:54:53;18.77;;;9.30;;
81908;SDS011;71372;43.514;1.512;2024-02-21T04:57:18;15.10;;;8.82;;
81908;SDS011;71372;43.514;1.512;2024-02-21T04:59:44;15.02;;;8.48;;
81908;SDS011;71372;43.514;1.512;2024-02-21T05:02:11;16.33;;;9.23;;
81908;SDS011;71372;43.514;1.512;2024-02-21T05:04:37;14.05;;;8.52;;
81908;SDS011;71372;43.514;1.512;2024-02-21T05:07:04;13.77;;;8.57;;
81908;SDS011;71372;43.514;1.512;2024-02-21T05:09:30;13.68;;;8.25;;
81908;SDS011;71372;43.514;1.512;2024-02-21T05:11:56;15.77;;;8.30;;
81908;SDS011;71372;43.514;1.512;2024-02-21T05:14:24;12.15;;;7.72;;
81908;SDS011;71372;43.514;1.512;2024-02-21T05:16:52;17.98;;;9.35;;
81908;SDS011;71372;43.514;1.512;2024-02-21T05:19:18;25.55;;;14.35;;
81908;SDS011;71372;43.514;1.512;2024-02-21T05:21:44;37.30;;;19.08;;
81908;SDS011;71372;43.514;1.512;2024-02-21T05:24:11;35.58;;;19.65;;
81908;SDS011;71372;43.514;1.512;2024-02-21T05:26:37;27.98;;;16.15;;
81908;SDS011;71372;43.514;1.512;2024-02-21T05:29:03;28.33;;;12.88;;
81908;SDS011;71372;43.514;1.512;2024-02-21T05:34:18;17.33;;;9.05;;
81908;SDS011;71372;43.514;1.512;2024-02-21T05:36:45;15.10;;;8.05;;
81908;SDS011;71372;43.514;1.512;2024-02-21T05:39:11;13.73;;;7.75;;
81908;SDS011;71372;43.514;1.512;2024-02-21T05:41:38;13.68;;;7.60;;
81908;SDS011;71372;43.514;1.512;2024-02-21T05:44:04;12.77;;;7.57;;
81908;SDS011;71372;43.514;1.512;2024-02-21T05:46:30;11.60;;;7.10;;
81908;SDS011;71372;43.514;1.512;2024-02-21T05:48:56;12.15;;;8.25;;
81908;SDS011;71372;43.514;1.512;2024-02-21T05:51:22;15.20;;;9.38;;
81908;SDS011;71372;43.514;1.512;2024-02-21T05:53:48;32.33;;;16.33;;
81908;SDS011;71372;43.514;1.512;2024-02-21T05:56:14;16.33;;;7.38;;
81908;SDS011;71372;43.514;1.512;2024-02-21T05:58:41;15.38;;;8.43;;
81908;SDS011;71372;43.514;1.512;2024-02-21T06:01:07;14.82;;;7.88;;
81908;SDS011;71372;43.514;1.512;2024-02-21T06:03:33;13.60;;;7.53;;
81908;SDS011;71372;43.514;1.512;2024-02-21T06:05:59;14.98;;;7.75;;
81908;SDS011;71372;43.514;1.512;2024-02-21T06:08:26;14.23;;;8.23;;
81908;SDS011;71372;43.514;1.512;2024-02-21T06:10:52;13.45;;;8.63;;
81908;SDS011;71372;43.514;1.512;2024-02-21T06:13:28;14.55;;;8.60;;
81908;SDS011;71372;43.514;1.512;2024-02-21T06:15:54;14.30;;;8.43;;
81908;SDS011;71372;43.514;1.512;2024-02-21T06:18:20;13.00;;;8.57;;
81908;SDS011;71372;43.514;1.512;2024-02-21T06:20:46;16.17;;;8.43;;
81908;SDS011;71372;43.514;1.512;2024-02-21T06:23:12;18.23;;;9.27;;
81908;SDS011;71372;43.514;1.512;2024-02-21T06:25:44;35.15;;;15.50;;
81908;SDS011;71372;43.514;1.512;2024-02-21T06:28:11;26.20;;;12.30;;
81908;SDS011;71372;43.514;1.512;2024-02-21T06:30:37;20.20;;;9.68;;
81908;SDS011;71372;43.514;1.512;2024-02-21T06:33:04;16.92;;;9.27;;
81908;SDS011;71372;43.514;1.512;2024-02-21T06:35:30;18.02;;;8.65;;
81908;SDS011;71372;43.514;1.512;2024-02-21T06:37:55;17.48;;;9.00;;
81908;SDS011;71372;43.514;1.512;2024-02-21T06:40:22;18.23;;;10.88;;
81908;SDS011;71372;43.514;1.512;2024-02-21T06:42:48;17.20;;;9.00;;
81908;SDS011;71372;43.514;1.512;2024-02-21T06:45:15;18.00;;;8.60;;
81908;SDS011;71372;43.514;1.512;2024-02-21T06:47:42;16.17;;;8.30;;
81908;SDS011;71372;43.514;1.512;2024-02-21T06:50:08;12.73;;;7.80;;
81908;SDS011;71372;43.514;1.512;2024-02-21T06:52:35;15.20;;;8.38;;
81908;SDS011;71372;43.514;1.512;2024-02-21T06:55:01;19.38;;;8.18;;
81908;SDS011;71372;43.514;1.512;2024-02-21T06:57:30;11.75;;;7.90;;
81908;SDS011;71372;43.514;1.512;2024-02-21T06:59:56;14.77;;;6.95;;
81908;SDS011;71372;43.514;1.512;2024-02-21T07:02:22;13.88;;;7.22;;
81908;SDS011;71372;43.514;1.512;2024-02-21T07:04:48;16.13;;;7.30;;
81908;SDS011;71372;43.514;1.512;2024-02-21T07:07:15;13.63;;;6.85;;
81908;SDS011;71372;43.514;1.512;2024-02-21T07:09:40;15.15;;;7.28;;
81908;SDS011;71372;43.514;1.512;2024-02-21T07:12:07;14.82;;;7.53;;
81908;SDS011;71372;43.514;1.512;2024-02-21T07:14:33;16.33;;;8.38;;
81908;SDS011;71372;43.514;1.512;2024-02-21T07:16:59;22.02;;;11.73;;
81908;SDS011;71372;43.514;1.512;2024-02-21T07:19:25;16.95;;;8.85;;
81908;SDS011;71372;43.514;1.512;2024-02-21T07:21:51;14.93;;;8.02;;
81908;SDS011;71372;43.514;1.512;2024-02-21T07:24:17;13.82;;;7.75;;
81908;SDS011;71372;43.514;1.512;2024-02-21T07:26:43;15.15;;;7.60;;
81908;SDS011;71372;43.514;1.512;2024-02-21T07:29:09;14.45;;;6.63;;
81908;SDS011;71372;43.514;1.512;2024-02-21T07:31:53;12.80;;;7.22;;
81908;SDS011;71372;43.514;1.512;2024-02-21T07:34:19;16.55;;;7.90;;
81908;SDS011;71372;43.514;1.512;2024-02-21T07:36:45;15.60;;;7.97;;
81908;SDS011;71372;43.514;1.512;2024-02-21T07:39:11;16.05;;;7.90;;
81908;SDS011;71372;43.514;1.512;2024-02-21T07:41:37;13.90;;;7.38;;
81908;SDS011;71372;43.514;1.512;2024-02-21T07:44:04;19.33;;;8.88;;
81908;SDS011;71372;43.514;1.512;2024-02-21T07:46:30;14.45;;;8.70;;
81908;SDS011;71372;43.514;1.512;2024-02-21T07:48:56;14.82;;;7.47;;
81908;SDS011;71372;43.514;1.512;2024-02-21T07:51:22;15.70;;;8.52;;
81908;SDS011;71372;43.514;1.512;2024-02-21T07:53:48;16.80;;;8.27;;
81908;SDS011;71372;43.514;1.512;2024-02-21T07:56:14;16.77;;;8.90;;
81908;SDS011;71372;43.514;1.512;2024-02-21T07:58:41;13.98;;;7.60;;
81908;SDS011;71372;43.514;1.512;2024-02-21T08:01:08;15.65;;;7.65;;
81908;SDS011;71372;43.514;1.512;2024-02-21T08:03:34;14.30;;;8.57;;
81908;SDS011;71372;43.514;1.512;2024-02-21T08:06:00;15.45;;;7.47;;
81908;SDS011;71372;43.514;1.512;2024-02-21T08:08:27;12.05;;;6.47;;
81908;SDS011;71372;43.514;1.512;2024-02-21T08:10:53;15.73;;;7.45;;
81908;SDS011;71372;43.514;1.512;2024-02-21T08:13:19;10.70;;;6.70;;
81908;SDS011;71372;43.514;1.512;2024-02-21T08:15:45;11.90;;;6.78;;
81908;SDS011;71372;43.514;1.512;2024-02-21T08:18:11;13.00;;;6.38;;
81908;SDS011;71372;43.514;1.512;2024-02-21T08:20:36;10.13;;;6.05;;
81908;SDS011;71372;43.514;1.512;2024-02-21T08:23:02;13.05;;;6.05;;
81908;SDS011;71372;43.514;1.512;2024-02-21T08:25:29;10.40;;;5.93;;
81908;SDS011;71372;43.514;1.512;2024-02-21T08:27:56;8.38;;;4.97;;
81908;SDS011;71372;43.514;1.512;2024-02-21T08:30:24;10.27;;;5.22;;
81908;SDS011;71372;43.514;1.512;2024-02-21T08:32:50;11.07;;;5.57;;
81908;SDS011;71372;43.514;1.512;2024-02-21T08:35:16;11.52;;;5.40;;
81908;SDS011;71372;43.514;1.512;2024-02-21T08:37:44;10.18;;;6.03;;
81908;SDS011;71372;43.514;1.512;2024-02-21T08:40:12;10.18;;;4.82;;
81908;SDS011;71372;43.514;1.512;2024-02-21T08:42:39;9.18;;;4.75;;
81908;SDS011;71372;43.514;1.512;2024-02-21T08:45:06;10.07;;;4.70;;
81908;SDS011;71372;43.514;1.512;2024-02-21T08:47:32;9.80;;;5.00;;
81908;SDS011;71372;43.514;1.512;2024-02-21T08:49:58;10.68;;;5.55;;
81908;SDS011;71372;43.514;1.512;2024-02-21T08:52:24;11.77;;;5.65;;
81908;SDS011;71372;43.514;1.512;2024-02-21T08:54:50;12.15;;;5.57;;
81908;SDS011;71372;43.514;1.512;2024-02-21T08:57:19;10.25;;;5.55;;
81908;SDS011;71372;43.514;1.512;2024-02-21T08:59:45;9.98;;;5.45;;
81908;SDS011;71372;43.514;1.512;2024-02-21T09:02:13;9.45;;;5.22;;
81908;SDS011;71372;43.514;1.512;2024-02-21T09:04:39;10.85;;;6.07;;
81908;SDS011;71372;43.514;1.512;2024-02-21T09:07:05;10.10;;;5.82;;
81908;SDS011;71372;43.514;1.512;2024-02-21T09:09:31;9.25;;;5.90;;
81908;SDS011;71372;43.514;1.512;2024-02-21T09:11:58;9.63;;;5.18;;
81908;SDS011;71372;43.514;1.512;2024-02-21T09:14:31;7.75;;;4.57;;
81908;SDS011;71372;43.514;1.512;2024-02-21T09:17:03;9.77;;;4.80;;
81908;SDS011;71372;43.514;1.512;2024-02-21T09:19:29;8.05;;;4.60;;
81908;SDS011;71372;43.514;1.512;2024-02-21T09:21:55;11.38;;;4.82;;
81908;SDS011;71372;43.514;1.512;2024-02-21T09:24:21;9.15;;;4.50;;
81908;SDS011;71372;43.514;1.512;2024-02-21T09:26:47;9.20;;;4.82;;
81908;SDS011;71372;43.514;1.512;2024-02-21T09:29:13;11.27;;;4.75;;
81908;SDS011;71372;43.514;1.512;2024-02-21T09:31:41;7.22;;;4.00;;
81908;SDS011;71372;43.514;1.512;2024-02-21T09:34:07;9.38;;;4.32;;
81908;SDS011;71372;43.514;1.512;2024-02-21T09:36:33;7.43;;;3.67;;
81908;SDS011;71372;43.514;1.512;2024-02-21T09:38:59;7.85;;;3.97;;
81908;SDS011;71372;43.514;1.512;2024-02-21T09:41:25;7.72;;;4.00;;
81908;SDS011;71372;43.514;1.512;2024-02-21T09:43:55;12.45;;;4.72;;
81908;SDS011;71372;43.514;1.512;2024-02-21T09:46:23;10.85;;;3.63;;
81908;SDS011;71372;43.514;1.512;2024-02-21T09:51:30;6.55;;;3.30;;
81908;SDS011;71372;43.514;1.512;2024-02-21T09:56:25;6.30;;;2.97;;
81908;SDS011;71372;43.514;1.512;2024-02-21T09:58:51;4.38;;;2.50;;
81908;SDS011;71372;43.514;1.512;2024-02-21T10:01:17;5.45;;;2.45;;
81908;SDS011;71372;43.514;1.512;2024-02-21T10:03:43;6.88;;;2.47;;
81908;SDS011;71372;43.514;1.512;2024-02-21T10:06:09;5.03;;;2.65;;
81908;SDS011;71372;43.514;1.512;2024-02-21T10:08:35;5.57;;;2.72;;
81908;SDS011;71372;43.514;1.512;2024-02-21T10:11:01;4.80;;;2.22;;
81908;SDS011;71372;43.514;1.512;2024-02-21T10:13:29;6.25;;;2.20;;
81908;SDS011;71372;43.514;1.512;2024-02-21T10:16:05;5.80;;;2.42;;
81908;SDS011;71372;43.514;1.512;2024-02-21T10:18:33;4.30;;;1.95;;
81908;SDS011;71372;43.514;1.512;2024-02-21T10:21:03;5.60;;;2.10;;
81908;SDS011;71372;43.514;1.512;2024-02-21T10:23:40;8.77;;;2.03;;
81908;SDS011;71372;43.514;1.512;2024-02-21T10:26:15;3.33;;;1.65;;
81908;SDS011;71372;43.514;1.512;2024-02-21T10:31:23;4.72;;;1.65;;
81908;SDS011;71372;43.514;1.512;2024-02-21T10:34:08;4.30;;;1.60;;
81908;SDS011;71372;43.514;1.512;2024-02-21T10:36:34;3.30;;;1.70;;
81908;SDS011;71372;43.514;1.512;2024-02-21T10:39:00;5.95;;;1.98;;
81908;SDS011;71372;43.514;1.512;2024-02-21T10:41:26;3.90;;;1.50;;
81908;SDS011;71372;43.514;1.512;2024-02-21T10:43:53;2.70;;;1.30;;
81908;SDS011;71372;43.514;1.512;2024-02-21T10:46:22;4.18;;;1.40;;
81908;SDS011;71372;43.514;1.512;2024-02-21T10:49:22;3.42;;;1.38;;
81908;SDS011;71372;43.514;1.512;2024-02-21T10:51:54;3.25;;;1.50;;
81908;SDS011;71372;43.514;1.512;2024-02-21T10:57:06;4.15;;;1.38;;
81908;SDS011;71372;43.514;1.512;2024-02-21T10:59:34;2.53;;;1.42;;
81908;SDS011;71372;43.514;1.512;2024-02-21T11:02:01;2.15;;;1.00;;
81908;SDS011;71372;43.514;1.512;2024-02-21T11:04:27;3.80;;;1.13;;
81908;SDS011;71372;43.514;1.512;2024-02-21T11:06:54;3.42;;;1.00;;
81908;SDS011;71372;43.514;1.512;2024-02-21T11:09:28;3.63;;;1.15;;
81908;SDS011;71372;43.514;1.512;2024-02-21T11:11:56;3.13;;;0.98;;
81908;SDS011;71372;43.514;1.512;2024-02-21T11:14:25;3.55;;;1.35;;
81908;SDS011;71372;43.514;1.512;2024-02-21T11:16:52;3.58;;;1.00;;
81908;SDS011;71372;43.514;1.512;2024-02-21T11:21:48;3.33;;;1.10;;
81908;SDS011;71372;43.514;1.512;2024-02-21T11:24:25;3.38;;;1.13;;
81908;SDS011;71372;43.514;1.512;2024-02-21T11:27:16;1.50;;;0.80;;
81908;SDS011;71372;43.514;1.512;2024-02-21T11:29:42;2.90;;;1.00;;
81908;SDS011;71372;43.514;1.512;2024-02-21T11:32:29;0.80;;;0.60;;
81908;SDS011;71372;43.514;1.512;2024-02-21T11:34:57;3.83;;;1.02;;
81908;SDS011;71372;43.514;1.512;2024-02-21T11:37:30;1.83;;;0.70;;
81908;SDS011;71372;43.514;1.512;2024-02-21T11:40:02;2.35;;;0.80;;
81908;SDS011;71372;43.514;1.512;2024-02-21T11:42:29;2.00;;;1.00;;
81908;SDS011;71372;43.514;1.512;2024-02-21T11:44:56;1.85;;;0.85;;
81908;SDS011;71372;43.514;1.512;2024-02-21T11:47:22;2.50;;;0.90;;
81908;SDS011;71372;43.514;1.512;2024-02-21T11:49:49;3.50;;;1.10;;
81908;SDS011;71372;43.514;1.512;2024-02-21T11:52:15;2.00;;;0.98;;
81908;SDS011;71372;43.514;1.512;2024-02-21T11:54:44;2.55;;;0.80;;
81908;SDS011;71372;43.514;1.512;2024-02-21T11:57:10;2.65;;;1.02;;
81908;SDS011;71372;43.514;1.512;2024-02-21T11:59:37;4.22;;;1.30;;
81908;SDS011;71372;43.514;1.512;2024-02-21T12:02:05;3.30;;;0.90;;
81908;SDS011;71372;43.514;1.512;2024-02-21T12:04:32;2.67;;;1.10;;
81908;SDS011;71372;43.514;1.512;2024-02-21T12:06:58;2.63;;;1.00;;
81908;SDS011;71372;43.514;1.512;2024-02-21T12:09:24;2.20;;;1.02;;
81908;SDS011;71372;43.514;1.512;2024-02-21T12:12:01;2.35;;;1.10;;
81908;SDS011;71372;43.514;1.512;2024-02-21T12:14:28;2.35;;;1.00;;
81908;SDS011;71372;43.514;1.512;2024-02-21T12:16:58;2.03;;;1.02;;
81908;SDS011;71372;43.514;1.512;2024-02-21T12:19:25;1.42;;;0.65;;
81908;SDS011;71372;43.514;1.512;2024-02-21T12:21:51;2.35;;;0.90;;
81908;SDS011;71372;43.514;1.512;2024-02-21T12:26:53;1.70;;;0.90;;
81908;SDS011;71372;43.514;1.512;2024-02-21T12:29:20;2.05;;;0.80;;
81908;SDS011;71372;43.514;1.512;2024-02-21T12:31:47;1.58;;;0.77;;
81908;SDS011;71372;43.514;1.512;2024-02-21T12:34:14;1.60;;;0.60;;
81908;SDS011;71372;43.514;1.512;2024-02-21T12:36:41;3.15;;;0.85;;
81908;SDS011;71372;43.514;1.512;2024-02-21T12:39:09;1.73;;;0.90;;
81908;SDS011;71372;43.514;1.512;2024-02-21T12:41:35;0.90;;;0.65;;
81908;SDS011;71372;43.514;1.512;2024-02-21T12:44:06;2.65;;;1.15;;
81908;SDS011;71372;43.514;1.512;2024-02-21T12:46:33;2.92;;;0.98;;
81908;SDS011;71372;43.514;1.512;2024-02-21T12:49:00;2.60;;;0.80;;
81908;SDS011;71372;43.514;1.512;2024-02-21T12:51:26;2.90;;;1.10;;
81908;SDS011;71372;43.514;1.512;2024-02-21T12:53:52;2.10;;;0.60;;
81908;SDS011;71372;43.514;1.512;2024-02-21T12:56:18;1.40;;;0.90;;
81908;SDS011;71372;43.514;1.512;2024-02-21T12:58:44;1.55;;;0.82;;
81908;SDS011;71372;43.514;1.512;2024-02-21T13:01:10;1.75;;;0.88;;
81908;SDS011;71372;43.514;1.512;2024-02-21T13:03:36;2.42;;;1.02;;
81908;SDS011;71372;43.514;1.512;2024-02-21T13:06:03;1.35;;;0.73;;
81908;SDS011;71372;43.514;1.512;2024-02-21T13:08:30;2.28;;;0.82;;
81908;SDS011;71372;43.514;1.512;2024-02-21T13:10:56;2.08;;;0.88;;
81908;SDS011;71372;43.514;1.512;2024-02-21T13:13:22;1.08;;;0.70;;
81908;SDS011;71372;43.514;1.512;2024-02-21T13:15:48;2.20;;;0.90;;
81908;SDS011;71372;43.514;1.512;2024-02-21T13:18:14;3.55;;;0.90;;
81908;SDS011;71372;43.514;1.512;2024-02-21T13:20:40;2.28;;;0.77;;
81908;SDS011;71372;43.514;1.512;2024-02-21T13:23:06;2.20;;;1.00;;
81908;SDS011;71372;43.514;1.512;2024-02-21T13:25:32;1.85;;;0.80;;
81908;SDS011;71372;43.514;1.512;2024-02-21T13:27:57;3.03;;;1.20;;
81908;SDS011;71372;43.514;1.512;2024-02-21T13:30:24;2.05;;;0.90;;
81908;SDS011;71372;43.514;1.512;2024-02-21T13:32:51;2.30;;;0.85;;
81908;SDS011;71372;43.514;1.512;2024-02-21T13:35:17;1.73;;;0.77;;
81908;SDS011;71372;43.514;1.512;2024-02-21T13:37:43;1.67;;;1.00;;
81908;SDS011;71372;43.514;1.512;2024-02-21T13:40:09;3.22;;;1.10;;
81908;SDS011;71372;43.514;1.512;2024-02-21T13:42:37;1.38;;;0.82;;
81908;SDS011;71372;43.514;1.512;2024-02-21T13:45:04;1.70;;;0.88;;
81908;SDS011;71372;43.514;1.512;2024-02-21T13:47:33;2.78;;;1.00;;
81908;SDS011;71372;43.514;1.512;2024-02-21T13:50:00;2.35;;;1.10;;
81908;SDS011;71372;43.514;1.512;2024-02-21T13:52:26;2.00;;;1.10;;
81908;SDS011;71372;43.514;1.512;2024-02-21T13:54:52;3.05;;;1.00;;
81908;SDS011;71372;43.514;1.512;2024-02-21T13:57:18;2.53;;;1.10;;
81908;SDS011;71372;43.514;1.512;2024-02-21T13:59:44;3.05;;;1.15;;
81908;SDS011;71372;43.514;1.512;2024-02-21T14:02:10;1.70;;;0.80;;
81908;SDS011;71372;43.514;1.512;2024-02-21T14:04:36;1.30;;;0.90;;
81908;SDS011;71372;43.514;1.512;2024-02-21T14:07:02;3.30;;;1.20;;
81908;SDS011;71372;43.514;1.512;2024-02-21T14:09:28;3.53;;;1.00;;
81908;SDS011;71372;43.514;1.512;2024-02-21T14:11:56;2.50;;;1.13;;
81908;SDS011;71372;43.514;1.512;2024-02-21T14:14:22;4.18;;;1.20;;
81908;SDS011;71372;43.514;1.512;2024-02-21T14:16:48;1.75;;;0.90;;
81908;SDS011;71372;43.514;1.512;2024-02-21T14:19:14;4.43;;;1.40;;
81908;SDS011;71372;43.514;1.512;2024-02-21T14:21:40;2.00;;;1.10;;
81908;SDS011;71372;43.514;1.512;2024-02-21T14:24:06;3.03;;;1.15;;
81908;SDS011;71372;43.514;1.512;2024-02-21T14:26:33;3.13;;;1.27;;
81908;SDS011;71372;43.514;1.512;2024-02-21T14:28:59;2.42;;;1.10;;
81908;SDS011;71372;43.514;1.512;2024-02-21T14:31:25;2.60;;;1.25;;
81908;SDS011;71372;43.514;1.512;2024-02-21T14:33:51;3.00;;;1.10;;
81908;SDS011;71372;43.514;1.512;2024-02-21T14:36:17;3.30;;;1.40;;
81908;SDS011;71372;43.514;1.512;2024-02-21T14:38:43;3.30;;;1.55;;
81908;SDS011;71372;43.514;1.512;2024-02-21T14:41:10;3.13;;;1.20;;
81908;SDS011;71372;43.514;1.512;2024-02-21T14:43:39;2.00;;;0.80;;
81908;SDS011;71372;43.514;1.512;2024-02-21T14:46:05;2.05;;;0.85;;
81908;SDS011;71372;43.514;1.512;2024-02-21T14:48:31;1.55;;;0.70;;
81908;SDS011;71372;43.514;1.512;2024-02-21T14:50:58;1.15;;;0.70;;
81908;SDS011;71372;43.514;1.512;2024-02-21T14:53:24;1.73;;;0.70;;
81908;SDS011;71372;43.514;1.512;2024-02-21T14:55:50;2.80;;;1.10;;